Sarah Schulte — 5BPA3 — position and weather

sailwx.info

Track history (hours):
 
Tides and Currents Weather Stations Pressure Air Temp Water Temp Dewpoint Dewpoint Depression Visibility Wind Speed Wind Dir Waves Ship Positions

Sarah Schulte

Last reported at 2017-Nov-18 14:19 UTC. Time now 2017-Nov-18 15:52 UTC.
Position N 01°16' E 103°34'.

Length 222 m; draft 10 m.

Type: Ship. MMSI: 210409000.

Date/timePositionNaut miles runAvg speedWind from/ knotsBaromVisibWave heightAir tempDewpointWater temp
2017-Nov-18 14:19N 01°16' E 103°34'0 0.0
2017-Nov-18 13:58N 01°16' E 103°34'0 0.1
2017-Nov-18 13:16N 01°16' E 103°34'0 0.2
2017-Nov-18 12:58N 01°16' E 103°34'0 0.1
2017-Nov-18 12:25N 01°16' E 103°34'0 0.0
2017-Nov-18 11:58N 01°16' E 103°34'0 0.0
2017-Nov-18 11:28N 01°16' E 103°34'0 0.1
2017-Nov-18 10:58N 01°16' E 103°34'0 0.0
2017-Nov-18 10:16N 01°16' E 103°34'0 0.0
2017-Nov-18 09:22N 01°16' E 103°34'0 0.0
2017-Nov-18 08:55N 01°16' E 103°34'0 0.0
2017-Nov-18 08:22N 01°16' E 103°34'0 0.0
2017-Nov-18 07:58N 01°16' E 103°34'0 0.1
2017-Nov-18 05:01N 01°16' E 103°34'0 1.3
2017-Nov-18 04:58N 01°16' E 103°34'0 0.1
2017-Nov-18 04:25N 01°16' E 103°34'0 0.0
2017-Nov-18 03:58N 01°16' E 103°34'0 0.0
2017-Nov-18 03:22N 01°16' E 103°34'0 0.1
2017-Nov-18 02:16N 01°16' E 103°34'0 0.0
2017-Nov-18 01:55N 01°16' E 103°34'0 0.0
2017-Nov-18 01:25N 01°16' E 103°34'0 0.0
2017-Nov-18 00:58N 01°16' E 103°34'0 0.1
2017-Nov-17 23:49N 01°16' E 103°34'0 0.1
2017-Nov-17 23:07N 01°16' E 103°34'0 0.1
2017-Nov-17 22:58N 01°16' E 103°34'0 0.1
2017-Nov-17 22:10N 01°16' E 103°34'0 0.0
2017-Nov-17 21:55N 01°16' E 103°34'0 0.1
2017-Nov-17 21:25N 01°16' E 103°34'0 0.0
2017-Nov-17 20:58N 01°16' E 103°34'0 0.0
2017-Nov-17 20:22N 01°16' E 103°34'0 0.0
2017-Nov-17 19:40N 01°16' E 103°34'0 0.0
2017-Nov-17 19:16N 01°16' E 103°34'0 0.0
2017-Nov-17 18:34N 01°16' E 103°34'0 0.1
2017-Nov-17 18:28N 01°16' E 103°34'0 0.1
2017-Nov-17 15:34N 01°16' E 103°34'0 0.1
2017-Nov-17 15:22N 01°16' E 103°34'0 0.1
2017-Nov-17 14:40N 01°16' E 103°34'0 0.0
2017-Nov-17 14:28N 01°16' E 103°34'0 0.0
2017-Nov-17 13:58N 01°16' E 103°34'0 0.1
2017-Nov-17 11:55N 01°16' E 103°34'0 0.1
2017-Nov-17 11:25N 01°16' E 103°34'0 0.0
2017-Nov-17 10:55N 01°16' E 103°34'0 0.1
2017-Nov-17 10:22N 01°16' E 103°34'0 0.0
2017-Nov-17 09:58N 01°16' E 103°34'0 0.0
2017-Nov-17 09:28N 01°16' E 103°34'0 0.0
2017-Nov-17 08:58N 01°16' E 103°34'0 0.1
2017-Nov-17 08:22N 01°16' E 103°34'0 0.1
2017-Nov-17 07:24N 01°16' E 103°34'2 4.7
2017-Nov-17 06:59N 01°14' E 103°33'4 8.3
2017-Nov-17 06:29N 01°12' E 103°30'3 6.0
2017-Nov-17 05:57N 01°10' E 103°27'612.8
2017-Nov-17 05:29N 01°14' E 103°22'309 7.0
2017-Nov-15 09:12N 05°13' E 100°06'814.6
2017-Nov-15 08:38N 05°21' E 100°06'214.6
2017-Nov-15 08:29N 05°24' E 100°06'1114.7
2017-Nov-15 07:44N 05°34' E 100°08'813.6
2017-Nov-15 07:11N 05°34' E 100°15'512.5
2017-Nov-15 06:49N 05°31' E 100°19'411.6
2017-Nov-15 06:28N 05°27' E 100°21'2 0.1
2017-Nov-14 15:44N 05°25' E 100°22'0 0.9
2017-Nov-14 15:12N 05°25' E 100°22'0 0.0
2017-Nov-14 15:00N 05°25' E 100°22'0 0.0
2017-Nov-14 14:00N 05°25' E 100°22'0 0.0
2017-Nov-14 12:42N 05°25' E 100°22'0 0.0
2017-Nov-14 10:12N 05°25' E 100°22'0 0.0
2017-Nov-14 08:12N 05°25' E 100°22'0 0.0
2017-Nov-14 07:42N 05°25' E 100°22'0 0.0
2017-Nov-14 05:30N 05°25' E 100°22'0 0.0
2017-Nov-14 04:24N 05°25' E 100°22'0 0.0
2017-Nov-14 00:18N 05°25' E 100°22'0 0.0
2017-Nov-13 23:54N 05°25' E 100°22'0 0.0
2017-Nov-13 01:47N 05°25' E 100°21'1 1.8
2017-Nov-13 01:30N 05°26' E 100°21'3 7.1
2017-Nov-13 01:00N 05°29' E 100°20'4 7.6
2017-Nov-13 00:30N 05°32' E 100°18'13 0.6
2017-Nov-12 02:51N 05°28' E 100°06'612.7
2017-Nov-12 02:21N 05°21' E 100°05'31913.5
2017-Nov-11 02:45N 01°14' E 103°28'416.5
2017-Nov-11 02:30N 01°14' E 103°32'611.6
2017-Nov-11 02:00N 01°20' E 103°33'2 0.4
2017-Nov-10 20:05N 01°22' E 103°33'0 0.0
2017-Nov-10 19:35N 01°22' E 103°33'0 0.0
2017-Nov-10 19:08N 01°22' E 103°33'0 0.0
2017-Nov-10 17:56N 01°22' E 103°33'0 0.0
2017-Nov-10 17:26N 01°22' E 103°33'0 0.0
2017-Nov-10 16:56N 01°22' E 103°33'0 0.0
2017-Nov-10 16:05N 01°22' E 103°33'0 0.0
2017-Nov-10 15:08N 01°22' E 103°33'0 0.0
2017-Nov-10 01:35N 01°22' E 103°33'0 0.0
2017-Nov-10 01:10N 01°22' E 103°33'0 0.8
2017-Nov-10 00:54N 01°22' E 103°33'3 6.4
2017-Nov-10 00:30N 01°19' E 103°33'510.7
2017-Nov-10 00:00N 01°14' E 103°32'2 3.3
2017-Nov-09 23:27N 01°13' E 103°33'0 0.7
2017-Nov-09 22:59N 01°13' E 103°33'0 0.9
2017-Nov-09 22:30N 01°12' E 103°34'1 2.4
2017-Nov-09 21:57N 01°12' E 103°35'3 6.4
2017-Nov-09 21:30N 01°12' E 103°38'3 5.5
2017-Nov-09 21:00N 01°13' E 103°40'4 7.5
2017-Nov-09 20:30N 01°15' E 103°43'3 5.8
2017-Nov-09 20:00N 01°17' E 103°45'1 2.0
2017-Nov-09 19:30N 01°17' E 103°46'0 0.0
2017-Nov-09 18:58N 01°17' E 103°46'0 0.0
2017-Nov-09 18:25N 01°17' E 103°46'0 0.0
2017-Nov-09 17:58N 01°17' E 103°46'0 0.0
2017-Nov-09 17:28N 01°17' E 103°46'0 0.0
2017-Nov-09 16:58N 01°17' E 103°46'0 0.1
2017-Nov-09 16:25N 01°17' E 103°46'0 0.1
2017-Nov-09 15:58N 01°17' E 103°46'0 0.0
2017-Nov-09 15:28N 01°17' E 103°46'0 0.1
2017-Nov-09 14:52N 01°17' E 103°46'0 0.1
2017-Nov-09 14:22N 01°17' E 103°46'0 0.2
2017-Nov-09 13:58N 01°17' E 103°46'0 0.1
2017-Nov-09 13:25N 01°17' E 103°46'0 0.0
2017-Nov-09 12:58N 01°17' E 103°46'0 0.0
2017-Nov-09 12:28N 01°17' E 103°46'0 0.0
2017-Nov-09 11:58N 01°17' E 103°46'0 0.1
2017-Nov-09 11:25N 01°17' E 103°46'0 0.1
2017-Nov-09 10:55N 01°17' E 103°46'0 0.0
2017-Nov-09 10:28N 01°17' E 103°46'0 0.1
2017-Nov-09 09:34N 01°17' E 103°46'0 0.6
2017-Nov-09 09:28N 01°17' E 103°46'0 0.1
2017-Nov-09 08:58N 01°17' E 103°46'0 0.1
2017-Nov-09 08:19N 01°17' E 103°46'0 0.2
2017-Nov-09 07:58N 01°17' E 103°46'0 0.1
2017-Nov-09 07:28N 01°17' E 103°46'0 0.0
2017-Nov-09 06:46N 01°17' E 103°46'0 0.0
2017-Nov-09 06:28N 01°17' E 103°46'0 0.0
2017-Nov-09 05:58N 01°17' E 103°46'0 0.0
2017-Nov-09 05:28N 01°17' E 103°46'0 0.0
2017-Nov-09 04:58N 01°17' E 103°46'0 0.1
2017-Nov-09 04:28N 01°17' E 103°46'0 0.1
2017-Nov-09 03:55N 01°17' E 103°46'0 0.1
2017-Nov-09 02:55N 01°17' E 103°46'0 0.0
2017-Nov-09 02:28N 01°17' E 103°46'0 0.1
2017-Nov-09 01:49N 01°17' E 103°46'0 0.0
2017-Nov-09 01:25N 01°17' E 103°46'0 0.0
2017-Nov-09 00:58N 01°17' E 103°46'0 0.1
2017-Nov-09 00:28N 01°17' E 103°46'0 0.1
2017-Nov-08 23:55N 01°17' E 103°46'0 0.0
2017-Nov-08 23:28N 01°17' E 103°46'0 0.1
2017-Nov-08 22:49N 01°17' E 103°46'0 0.2
2017-Nov-08 22:28N 01°17' E 103°46'0 0.1
2017-Nov-08 21:49N 01°17' E 103°46'0 0.2
2017-Nov-08 21:28N 01°17' E 103°46'0 0.1
2017-Nov-08 20:58N 01°17' E 103°46'0 0.0
2017-Nov-08 20:25N 01°17' E 103°46'0 0.1
2017-Nov-08 19:58N 01°17' E 103°46'0 0.0
2017-Nov-08 19:25N 01°17' E 103°46'0 0.0
2017-Nov-08 18:52N 01°17' E 103°46'0 0.0
2017-Nov-08 18:28N 01°17' E 103°46'0 0.0
2017-Nov-08 17:58N 01°17' E 103°46'0 0.1
2017-Nov-08 17:28N 01°17' E 103°46'0 0.0
2017-Nov-08 16:55N 01°17' E 103°46'0 0.1
2017-Nov-08 16:22N 01°17' E 103°46'0 0.0
2017-Nov-08 15:58N 01°17' E 103°46'0 0.0
2017-Nov-08 15:25N 01°17' E 103°46'0 0.0
2017-Nov-08 14:52N 01°17' E 103°46'0 0.0
2017-Nov-08 14:28N 01°17' E 103°46'  
Track history (hours):
 
Tides and Currents Weather Stations Pressure Air Temp Water Temp Dewpoint Dewpoint Depression Visibility Wind Speed Wind Dir Waves Ship Positions

Sarah Schulte

Last reported at 2017-Nov-18 14:19 UTC. Time now 2017-Nov-18 15:52 UTC.
Position N 01°16' E 103°34'.

Length 222 m; draft 10 m.

Type: Ship. MMSI: 210409000.

Date/timePositionNaut miles runAvg speedWind from/ knotsBaromVisibWave heightAir tempDewpointWater temp
2017-Nov-18 14:19N 01°16' E 103°34'0 0.0
2017-Nov-18 13:58N 01°16' E 103°34'0 0.1
2017-Nov-18 13:16N 01°16' E 103°34'0 0.2
2017-Nov-18 12:58N 01°16' E 103°34'0 0.1
2017-Nov-18 12:25N 01°16' E 103°34'0 0.0
2017-Nov-18 11:58N 01°16' E 103°34'0 0.0
2017-Nov-18 11:28N 01°16' E 103°34'0 0.1
2017-Nov-18 10:58N 01°16' E 103°34'0 0.0
2017-Nov-18 10:16N 01°16' E 103°34'0 0.0
2017-Nov-18 09:22N 01°16' E 103°34'0 0.0
2017-Nov-18 08:55N 01°16' E 103°34'0 0.0
2017-Nov-18 08:22N 01°16' E 103°34'0 0.0
2017-Nov-18 07:58N 01°16' E 103°34'0 0.1
2017-Nov-18 05:01N 01°16' E 103°34'0 1.3
2017-Nov-18 04:58N 01°16' E 103°34'0 0.1
2017-Nov-18 04:25N 01°16' E 103°34'0 0.0
2017-Nov-18 03:58N 01°16' E 103°34'0 0.0
2017-Nov-18 03:22N 01°16' E 103°34'0 0.1
2017-Nov-18 02:16N 01°16' E 103°34'0 0.0
2017-Nov-18 01:55N 01°16' E 103°34'0 0.0
2017-Nov-18 01:25N 01°16' E 103°34'0 0.0
2017-Nov-18 00:58N 01°16' E 103°34'0 0.1
2017-Nov-17 23:49N 01°16' E 103°34'0 0.1
2017-Nov-17 23:07N 01°16' E 103°34'0 0.1
2017-Nov-17 22:58N 01°16' E 103°34'0 0.1
2017-Nov-17 22:10N 01°16' E 103°34'0 0.0
2017-Nov-17 21:55N 01°16' E 103°34'0 0.1
2017-Nov-17 21:25N 01°16' E 103°34'0 0.0
2017-Nov-17 20:58N 01°16' E 103°34'0 0.0
2017-Nov-17 20:22N 01°16' E 103°34'0 0.0
2017-Nov-17 19:40N 01°16' E 103°34'0 0.0
2017-Nov-17 19:16N 01°16' E 103°34'0 0.0
2017-Nov-17 18:34N 01°16' E 103°34'0 0.1
2017-Nov-17 18:28N 01°16' E 103°34'0 0.1
2017-Nov-17 15:34N 01°16' E 103°34'0 0.1
2017-Nov-17 15:22N 01°16' E 103°34'0 0.1
2017-Nov-17 14:40N 01°16' E 103°34'0 0.0
2017-Nov-17 14:28N 01°16' E 103°34'0 0.0
2017-Nov-17 13:58N 01°16' E 103°34'0 0.1
2017-Nov-17 11:55N 01°16' E 103°34'0 0.1
2017-Nov-17 11:25N 01°16' E 103°34'0 0.0
2017-Nov-17 10:55N 01°16' E 103°34'0 0.1
2017-Nov-17 10:22N 01°16' E 103°34'0 0.0
2017-Nov-17 09:58N 01°16' E 103°34'0 0.0
2017-Nov-17 09:28N 01°16' E 103°34'0 0.0
2017-Nov-17 08:58N 01°16' E 103°34'0 0.1
2017-Nov-17 08:22N 01°16' E 103°34'0 0.1
2017-Nov-17 07:24N 01°16' E 103°34'2 4.7
2017-Nov-17 06:59N 01°14' E 103°33'4 8.3
2017-Nov-17 06:29N 01°12' E 103°30'3 6.0
2017-Nov-17 05:57N 01°10' E 103°27'612.8
2017-Nov-17 05:29N 01°14' E 103°22'309 7.0
2017-Nov-15 09:12N 05°13' E 100°06'814.6
2017-Nov-15 08:38N 05°21' E 100°06'214.6
2017-Nov-15 08:29N 05°24' E 100°06'1114.7
2017-Nov-15 07:44N 05°34' E 100°08'813.6
2017-Nov-15 07:11N 05°34' E 100°15'512.5
2017-Nov-15 06:49N 05°31' E 100°19'411.6
2017-Nov-15 06:28N 05°27' E 100°21'2 0.1
2017-Nov-14 15:44N 05°25' E 100°22'0 0.9
2017-Nov-14 15:12N 05°25' E 100°22'0 0.0
2017-Nov-14 15:00N 05°25' E 100°22'0 0.0
2017-Nov-14 14:00N 05°25' E 100°22'0 0.0
2017-Nov-14 12:42N 05°25' E 100°22'0 0.0
2017-Nov-14 10:12N 05°25' E 100°22'0 0.0
2017-Nov-14 08:12N 05°25' E 100°22'0 0.0
2017-Nov-14 07:42N 05°25' E 100°22'0 0.0
2017-Nov-14 05:30N 05°25' E 100°22'0 0.0
2017-Nov-14 04:24N 05°25' E 100°22'0 0.0
2017-Nov-14 00:18N 05°25' E 100°22'0 0.0
2017-Nov-13 23:54N 05°25' E 100°22'0 0.0
2017-Nov-13 01:47N 05°25' E 100°21'1 1.8
2017-Nov-13 01:30N 05°26' E 100°21'3 7.1
2017-Nov-13 01:00N 05°29' E 100°20'4 7.6
2017-Nov-13 00:30N 05°32' E 100°18'13 0.6
2017-Nov-12 02:51N 05°28' E 100°06'612.7
2017-Nov-12 02:21N 05°21' E 100°05'31913.5
2017-Nov-11 02:45N 01°14' E 103°28'416.5
2017-Nov-11 02:30N 01°14' E 103°32'611.6
2017-Nov-11 02:00N 01°20' E 103°33'2 0.4
2017-Nov-10 20:05N 01°22' E 103°33'0 0.0
2017-Nov-10 19:35N 01°22' E 103°33'0 0.0
2017-Nov-10 19:08N 01°22' E 103°33'0 0.0
2017-Nov-10 17:56N 01°22' E 103°33'0 0.0
2017-Nov-10 17:26N 01°22' E 103°33'0 0.0
2017-Nov-10 16:56N 01°22' E 103°33'0 0.0
2017-Nov-10 16:05N 01°22' E 103°33'0 0.0
2017-Nov-10 15:08N 01°22' E 103°33'0 0.0
2017-Nov-10 01:35N 01°22' E 103°33'0 0.0
2017-Nov-10 01:10N 01°22' E 103°33'0 0.8
2017-Nov-10 00:54N 01°22' E 103°33'3 6.4
2017-Nov-10 00:30N 01°19' E 103°33'510.7
2017-Nov-10 00:00N 01°14' E 103°32'2 3.3
2017-Nov-09 23:27N 01°13' E 103°33'0 0.7
2017-Nov-09 22:59N 01°13' E 103°33'0 0.9
2017-Nov-09 22:30N 01°12' E 103°34'1 2.4
2017-Nov-09 21:57N 01°12' E 103°35'3 6.4
2017-Nov-09 21:30N 01°12' E 103°38'3 5.5
2017-Nov-09 21:00N 01°13' E 103°40'4 7.5
2017-Nov-09 20:30N 01°15' E 103°43'3 5.8
2017-Nov-09 20:00N 01°17' E 103°45'1 2.0
2017-Nov-09 19:30N 01°17' E 103°46'0 0.0
2017-Nov-09 18:58N 01°17' E 103°46'0 0.0
2017-Nov-09 18:25N 01°17' E 103°46'0 0.0
2017-Nov-09 17:58N 01°17' E 103°46'0 0.0
2017-Nov-09 17:28N 01°17' E 103°46'0 0.0
2017-Nov-09 16:58N 01°17' E 103°46'0 0.1
2017-Nov-09 16:25N 01°17' E 103°46'0 0.1
2017-Nov-09 15:58N 01°17' E 103°46'0 0.0
2017-Nov-09 15:28N 01°17' E 103°46'0 0.1
2017-Nov-09 14:52N 01°17' E 103°46'0 0.1
2017-Nov-09 14:22N 01°17' E 103°46'0 0.2
2017-Nov-09 13:58N 01°17' E 103°46'0 0.1
2017-Nov-09 13:25N 01°17' E 103°46'0 0.0
2017-Nov-09 12:58N 01°17' E 103°46'0 0.0
2017-Nov-09 12:28N 01°17' E 103°46'0 0.0
2017-Nov-09 11:58N 01°17' E 103°46'0 0.1
2017-Nov-09 11:25N 01°17' E 103°46'0 0.1
2017-Nov-09 10:55N 01°17' E 103°46'0 0.0
2017-Nov-09 10:28N 01°17' E 103°46'0 0.1
2017-Nov-09 09:34N 01°17' E 103°46'0 0.6
2017-Nov-09 09:28N 01°17' E 103°46'0 0.1
2017-Nov-09 08:58N 01°17' E 103°46'0 0.1
2017-Nov-09 08:19N 01°17' E 103°46'0 0.2
2017-Nov-09 07:58N 01°17' E 103°46'0 0.1
2017-Nov-09 07:28N 01°17' E 103°46'0 0.0
2017-Nov-09 06:46N 01°17' E 103°46'0 0.0
2017-Nov-09 06:28N 01°17' E 103°46'0 0.0
2017-Nov-09 05:58N 01°17' E 103°46'0 0.0
2017-Nov-09 05:28N 01°17' E 103°46'0 0.0
2017-Nov-09 04:58N 01°17' E 103°46'0 0.1
2017-Nov-09 04:28N 01°17' E 103°46'0 0.1
2017-Nov-09 03:55N 01°17' E 103°46'0 0.1
2017-Nov-09 02:55N 01°17' E 103°46'0 0.0
2017-Nov-09 02:28N 01°17' E 103°46'0 0.1
2017-Nov-09 01:49N 01°17' E 103°46'0 0.0
2017-Nov-09 01:25N 01°17' E 103°46'0 0.0
2017-Nov-09 00:58N 01°17' E 103°46'0 0.1
2017-Nov-09 00:28N 01°17' E 103°46'0 0.1
2017-Nov-08 23:55N 01°17' E 103°46'0 0.0
2017-Nov-08 23:28N 01°17' E 103°46'0 0.1
2017-Nov-08 22:49N 01°17' E 103°46'0 0.2
2017-Nov-08 22:28N 01°17' E 103°46'0 0.1
2017-Nov-08 21:49N 01°17' E 103°46'0 0.2
2017-Nov-08 21:28N 01°17' E 103°46'0 0.1
2017-Nov-08 20:58N 01°17' E 103°46'0 0.0
2017-Nov-08 20:25N 01°17' E 103°46'0 0.1
2017-Nov-08 19:58N 01°17' E 103°46'0 0.0
2017-Nov-08 19:25N 01°17' E 103°46'0 0.0
2017-Nov-08 18:52N 01°17' E 103°46'0 0.0
2017-Nov-08 18:28N 01°17' E 103°46'0 0.0
2017-Nov-08 17:58N 01°17' E 103°46'0 0.1
2017-Nov-08 17:28N 01°17' E 103°46'0 0.0
2017-Nov-08 16:55N 01°17' E 103°46'0 0.1
2017-Nov-08 16:22N 01°17' E 103°46'0 0.0
2017-Nov-08 15:58N 01°17' E 103°46'0 0.0
2017-Nov-08 15:25N 01°17' E 103°46'0 0.0
2017-Nov-08 14:52N 01°17' E 103°46'0 0.0
2017-Nov-08 14:28N 01°17' E 103°46'  

Dump ship's entire track history